sensor_id;sensor_type;location;lat;lon;timestamp;temperature;humidity
67093;SHT31;54011;50.772;7.730;2023-02-14T00:02:10;3.69;86.00
67093;SHT31;54011;50.772;7.730;2023-02-14T00:04:36;3.71;86.22
67093;SHT31;54011;50.772;7.730;2023-02-14T00:07:09;3.65;85.74
67093;SHT31;54011;50.772;7.730;2023-02-14T00:09:35;3.64;85.23
67093;SHT31;54011;50.772;7.730;2023-02-14T00:12:01;3.51;85.95
67093;SHT31;54011;50.772;7.730;2023-02-14T00:14:27;3.35;85.62
67093;SHT31;54011;50.772;7.730;2023-02-14T00:17:11;3.28;85.64
67093;SHT31;54011;50.772;7.730;2023-02-14T00:19:36;3.32;86.04
67093;SHT31;54011;50.772;7.730;2023-02-14T00:22:02;3.28;86.40
67093;SHT31;54011;50.772;7.730;2023-02-14T00:24:28;3.34;85.94
67093;SHT31;54011;50.772;7.730;2023-02-14T00:26:54;3.35;85.31
67093;SHT31;54011;50.772;7.730;2023-02-14T00:29:22;3.25;85.28
67093;SHT31;54011;50.772;7.730;2023-02-14T00:31:49;3.27;85.44
67093;SHT31;54011;50.772;7.730;2023-02-14T00:34:16;3.39;85.37
67093;SHT31;54011;50.772;7.730;2023-02-14T00:36:42;3.31;86.03
67093;SHT31;54011;50.772;7.730;2023-02-14T00:39:10;3.30;86.82
67093;SHT31;54011;50.772;7.730;2023-02-14T00:41:36;3.31;86.67
67093;SHT31;54011;50.772;7.730;2023-02-14T00:44:02;3.14;87.95
67093;SHT31;54011;50.772;7.730;2023-02-14T00:46:28;3.13;87.98
67093;SHT31;54011;50.772;7.730;2023-02-14T00:48:54;3.18;88.05
67093;SHT31;54011;50.772;7.730;2023-02-14T00:51:21;3.24;87.74
67093;SHT31;54011;50.772;7.730;2023-02-14T00:53:49;3.18;87.85
67093;SHT31;54011;50.772;7.730;2023-02-14T00:56:15;3.14;87.71
67093;SHT31;54011;50.772;7.730;2023-02-14T00:58:41;2.93;88.09
67093;SHT31;54011;50.772;7.730;2023-02-14T01:01:08;2.83;88.51
67093;SHT31;54011;50.772;7.730;2023-02-14T01:03:34;2.96;87.94
67093;SHT31;54011;50.772;7.730;2023-02-14T01:06:01;2.93;88.36
67093;SHT31;54011;50.772;7.730;2023-02-14T01:08:28;2.93;87.83
67093;SHT31;54011;50.772;7.730;2023-02-14T01:10:54;2.76;86.52
67093;SHT31;54011;50.772;7.730;2023-02-14T01:13:20;2.69;87.83
67093;SHT31;54011;50.772;7.730;2023-02-14T01:15:47;2.57;88.26
67093;SHT31;54011;50.772;7.730;2023-02-14T01:18:14;2.60;88.40
67093;SHT31;54011;50.772;7.730;2023-02-14T01:20:40;2.69;87.78
67093;SHT31;54011;50.772;7.730;2023-02-14T01:23:05;2.73;87.71
67093;SHT31;54011;50.772;7.730;2023-02-14T01:25:31;2.69;87.56
67093;SHT31;54011;50.772;7.730;2023-02-14T01:27:58;2.66;87.80
67093;SHT31;54011;50.772;7.730;2023-02-14T01:30:24;2.56;88.21
67093;SHT31;54011;50.772;7.730;2023-02-14T01:32:50;2.55;88.36
67093;SHT31;54011;50.772;7.730;2023-02-14T01:35:15;2.56;87.84
67093;SHT31;54011;50.772;7.730;2023-02-14T01:37:41;2.48;88.04
67093;SHT31;54011;50.772;7.730;2023-02-14T01:40:10;2.41;86.57
67093;SHT31;54011;50.772;7.730;2023-02-14T01:42:36;2.26;86.29
67093;SHT31;54011;50.772;7.730;2023-02-14T01:45:21;2.10;86.27
67093;SHT31;54011;50.772;7.730;2023-02-14T01:47:52;2.07;86.06
67093;SHT31;54011;50.772;7.730;2023-02-14T01:52:51;2.04;86.93
67093;SHT31;54011;50.772;7.730;2023-02-14T01:55:21;2.00;87.00
67093;SHT31;54011;50.772;7.730;2023-02-14T01:57:53;1.98;86.91
67093;SHT31;54011;50.772;7.730;2023-02-14T02:00:21;2.05;86.94
67093;SHT31;54011;50.772;7.730;2023-02-14T02:03:07;2.17;86.59
67093;SHT31;54011;50.772;7.730;2023-02-14T02:05:35;2.10;87.54
67093;SHT31;54011;50.772;7.730;2023-02-14T02:08:02;2.12;87.79
67093;SHT31;54011;50.772;7.730;2023-02-14T02:10:27;2.12;87.51
67093;SHT31;54011;50.772;7.730;2023-02-14T02:12:53;2.10;86.88
67093;SHT31;54011;50.772;7.730;2023-02-14T02:15:22;2.04;87.21
67093;SHT31;54011;50.772;7.730;2023-02-14T02:17:54;1.94;86.75
67093;SHT31;54011;50.772;7.730;2023-02-14T02:46:00;1.98;88.87
67093;SHT31;54011;50.772;7.730;2023-02-14T02:49:03;1.80;86.84
67093;SHT31;54011;50.772;7.730;2023-02-14T02:51:39;1.59;86.13
67093;SHT31;54011;50.772;7.730;2023-02-14T02:54:39;1.31;86.65
67093;SHT31;54011;50.772;7.730;2023-02-14T02:57:12;1.32;87.08
67093;SHT31;54011;50.772;7.730;2023-02-14T02:59:41;1.40;86.95
67093;SHT31;54011;50.772;7.730;2023-02-14T03:02:15;1.43;87.00
67093;SHT31;54011;50.772;7.730;2023-02-14T03:04:46;1.57;86.33
67093;SHT31;54011;50.772;7.730;2023-02-14T03:18:06;1.78;89.09
67093;SHT31;54011;50.772;7.730;2023-02-14T03:23:43;1.88;89.08
67093;SHT31;54011;50.772;7.730;2023-02-14T03:26:16;1.98;89.17
67093;SHT31;54011;50.772;7.730;2023-02-14T03:28:58;1.94;89.42
67093;SHT31;54011;50.772;7.730;2023-02-14T03:31:27;2.01;89.37
67093;SHT31;54011;50.772;7.730;2023-02-14T03:36:38;2.07;88.49
67093;SHT31;54011;50.772;7.730;2023-02-14T03:39:09;2.00;89.03
67093;SHT31;54011;50.772;7.730;2023-02-14T03:42:03;1.94;88.37
67093;SHT31;54011;50.772;7.730;2023-02-14T03:44:30;1.93;88.87
67093;SHT31;54011;50.772;7.730;2023-02-14T03:47:01;1.88;89.45
67093;SHT31;54011;50.772;7.730;2023-02-14T03:49:31;1.84;89.44
67093;SHT31;54011;50.772;7.730;2023-02-14T03:51:59;1.90;88.75
67093;SHT31;54011;50.772;7.730;2023-02-14T03:54:27;2.00;88.29
67093;SHT31;54011;50.772;7.730;2023-02-14T03:59:32;1.77;88.57
67093;SHT31;54011;50.772;7.730;2023-02-14T04:02:17;1.66;87.28
67093;SHT31;54011;50.772;7.730;2023-02-14T04:04:47;1.52;86.35
67093;SHT31;54011;50.772;7.730;2023-02-14T04:07:17;1.44;86.71
67093;SHT31;54011;50.772;7.730;2023-02-14T04:09:43;1.38;86.49
67093;SHT31;54011;50.772;7.730;2023-02-14T04:12:08;1.28;86.37
67093;SHT31;54011;50.772;7.730;2023-02-14T04:14:35;1.19;86.49
67093;SHT31;54011;50.772;7.730;2023-02-14T04:17:01;1.16;86.52
67093;SHT31;54011;50.772;7.730;2023-02-14T04:19:45;1.01;87.71
67093;SHT31;54011;50.772;7.730;2023-02-14T04:22:10;1.09;87.55
67093;SHT31;54011;50.772;7.730;2023-02-14T04:24:37;1.19;87.51
67093;SHT31;54011;50.772;7.730;2023-02-14T04:27:04;1.36;87.63
67093;SHT31;54011;50.772;7.730;2023-02-14T04:29:46;1.44;87.01
67093;SHT31;54011;50.772;7.730;2023-02-14T04:32:15;1.32;87.26
67093;SHT31;54011;50.772;7.730;2023-02-14T04:34:41;1.39;88.37
67093;SHT31;54011;50.772;7.730;2023-02-14T04:37:06;1.43;88.00
67093;SHT31;54011;50.772;7.730;2023-02-14T04:39:32;1.44;87.58
67093;SHT31;54011;50.772;7.730;2023-02-14T04:41:58;1.36;86.69
67093;SHT31;54011;50.772;7.730;2023-02-14T04:44:23;1.13;86.38
67093;SHT31;54011;50.772;7.730;2023-02-14T04:46:49;0.92;86.77
67093;SHT31;54011;50.772;7.730;2023-02-14T04:49:15;0.81;87.02
67093;SHT31;54011;50.772;7.730;2023-02-14T04:51:41;0.94;86.79
67093;SHT31;54011;50.772;7.730;2023-02-14T04:54:06;0.89;86.93
67093;SHT31;54011;50.772;7.730;2023-02-14T04:56:32;0.85;87.02
67093;SHT31;54011;50.772;7.730;2023-02-14T04:58:59;0.81;87.15
67093;SHT31;54011;50.772;7.730;2023-02-14T05:01:25;0.81;86.64
67093;SHT31;54011;50.772;7.730;2023-02-14T05:03:51;0.67;86.54
67093;SHT31;54011;50.772;7.730;2023-02-14T05:06:16;0.58;87.22
67093;SHT31;54011;50.772;7.730;2023-02-14T05:08:42;0.74;87.27
67093;SHT31;54011;50.772;7.730;2023-02-14T05:11:07;0.71;87.06
67093;SHT31;54011;50.772;7.730;2023-02-14T05:13:33;0.78;86.84
67093;SHT31;54011;50.772;7.730;2023-02-14T05:15:58;0.75;87.03
67093;SHT31;54011;50.772;7.730;2023-02-14T05:18:24;0.87;88.13
67093;SHT31;54011;50.772;7.730;2023-02-14T05:20:51;0.99;89.17
67093;SHT31;54011;50.772;7.730;2023-02-14T05:23:16;1.06;88.67
67093;SHT31;54011;50.772;7.730;2023-02-14T05:25:42;1.09;87.50
67093;SHT31;54011;50.772;7.730;2023-02-14T05:28:08;0.91;86.64
67093;SHT31;54011;50.772;7.730;2023-02-14T05:30:34;0.85;86.55
67093;SHT31;54011;50.772;7.730;2023-02-14T05:33:00;0.71;86.62
67093;SHT31;54011;50.772;7.730;2023-02-14T05:35:26;0.77;86.51
67093;SHT31;54011;50.772;7.730;2023-02-14T05:37:52;0.67;87.46
67093;SHT31;54011;50.772;7.730;2023-02-14T05:40:17;0.75;87.42
67093;SHT31;54011;50.772;7.730;2023-02-14T05:42:43;0.88;87.40
67093;SHT31;54011;50.772;7.730;2023-02-14T05:45:09;0.98;88.07
67093;SHT31;54011;50.772;7.730;2023-02-14T05:47:35;0.96;87.55
67093;SHT31;54011;50.772;7.730;2023-02-14T05:50:01;0.88;86.93
67093;SHT31;54011;50.772;7.730;2023-02-14T05:52:26;0.91;86.57
67093;SHT31;54011;50.772;7.730;2023-02-14T05:54:53;0.70;86.28
67093;SHT31;54011;50.772;7.730;2023-02-14T05:57:18;0.41;86.66
67093;SHT31;54011;50.772;7.730;2023-02-14T05:59:44;0.23;86.63
67093;SHT31;54011;50.772;7.730;2023-02-14T06:02:09;0.17;87.08
67093;SHT31;54011;50.772;7.730;2023-02-14T06:04:35;0.07;87.13
67093;SHT31;54011;50.772;7.730;2023-02-14T06:07:00;0.07;87.68
67093;SHT31;54011;50.772;7.730;2023-02-14T06:09:26;0.26;87.41
67093;SHT31;54011;50.772;7.730;2023-02-14T06:11:51;0.16;87.10
67093;SHT31;54011;50.772;7.730;2023-02-14T06:14:17;0.19;87.10
67093;SHT31;54011;50.772;7.730;2023-02-14T06:16:42;0.34;87.22
67093;SHT31;54011;50.772;7.730;2023-02-14T06:19:08;0.40;87.22
67093;SHT31;54011;50.772;7.730;2023-02-14T06:21:35;0.46;87.04
67093;SHT31;54011;50.772;7.730;2023-02-14T06:24:00;0.54;88.17
67093;SHT31;54011;50.772;7.730;2023-02-14T06:26:26;0.54;87.80
67093;SHT31;54011;50.772;7.730;2023-02-14T06:28:56;0.53;87.09
67093;SHT31;54011;50.772;7.730;2023-02-14T06:31:23;0.57;87.05
67093;SHT31;54011;50.772;7.730;2023-02-14T06:33:50;0.58;86.66
67093;SHT31;54011;50.772;7.730;2023-02-14T06:36:16;0.64;87.10
67093;SHT31;54011;50.772;7.730;2023-02-14T06:38:41;0.53;87.16
67093;SHT31;54011;50.772;7.730;2023-02-14T06:41:08;0.44;86.70
67093;SHT31;54011;50.772;7.730;2023-02-14T06:43:35;0.19;87.15
67093;SHT31;54011;50.772;7.730;2023-02-14T06:46:00;0.41;87.02
67093;SHT31;54011;50.772;7.730;2023-02-14T06:48:26;0.53;86.81
67093;SHT31;54011;50.772;7.730;2023-02-14T06:50:52;0.71;87.70
67093;SHT31;54011;50.772;7.730;2023-02-14T06:53:19;0.72;87.71
67093;SHT31;54011;50.772;7.730;2023-02-14T06:55:44;0.65;87.03
67093;SHT31;54011;50.772;7.730;2023-02-14T06:58:09;0.56;85.53
67093;SHT31;54011;50.772;7.730;2023-02-14T07:00:35;0.43;86.36
67093;SHT31;54011;50.772;7.730;2023-02-14T07:03:01;0.54;87.70
67093;SHT31;54011;50.772;7.730;2023-02-14T07:05:27;0.70;89.29
67093;SHT31;54011;50.772;7.730;2023-02-14T07:07:52;0.94;89.02
67093;SHT31;54011;50.772;7.730;2023-02-14T07:10:19;0.99;89.12
67093;SHT31;54011;50.772;7.730;2023-02-14T07:12:44;1.05;88.25
67093;SHT31;54011;50.772;7.730;2023-02-14T07:15:12;0.89;85.60
67093;SHT31;54011;50.772;7.730;2023-02-14T07:17:38;0.78;86.30
67093;SHT31;54011;50.772;7.730;2023-02-14T07:20:04;0.61;84.91
67093;SHT31;54011;50.772;7.730;2023-02-14T07:22:31;0.13;85.51
67093;SHT31;54011;50.772;7.730;2023-02-14T07:24:57;0.22;85.68
67093;SHT31;54011;50.772;7.730;2023-02-14T07:27:22;0.36;86.35
67093;SHT31;54011;50.772;7.730;2023-02-14T07:29:47;0.64;89.37
67093;SHT31;54011;50.772;7.730;2023-02-14T07:32:13;0.96;90.60
67093;SHT31;54011;50.772;7.730;2023-02-14T07:34:38;1.21;89.89
67093;SHT31;54011;50.772;7.730;2023-02-14T07:37:04;1.32;89.93
67093;SHT31;54011;50.772;7.730;2023-02-14T07:39:30;1.46;89.57
67093;SHT31;54011;50.772;7.730;2023-02-14T07:41:55;1.46;88.89
67093;SHT31;54011;50.772;7.730;2023-02-14T07:44:24;1.47;89.76
67093;SHT31;54011;50.772;7.730;2023-02-14T07:46:53;1.39;89.71
67093;SHT31;54011;50.772;7.730;2023-02-14T07:49:18;1.59;89.52
67093;SHT31;54011;50.772;7.730;2023-02-14T07:51:43;1.57;89.71
67093;SHT31;54011;50.772;7.730;2023-02-14T07:54:09;1.66;89.68
67093;SHT31;54011;50.772;7.730;2023-02-14T07:56:34;1.67;89.93
67093;SHT31;54011;50.772;7.730;2023-02-14T07:59:00;1.71;90.15
67093;SHT31;54011;50.772;7.730;2023-02-14T08:01:25;1.84;89.85
67093;SHT31;54011;50.772;7.730;2023-02-14T08:03:51;1.93;89.60
67093;SHT31;54011;50.772;7.730;2023-02-14T08:06:18;2.00;89.66
67093;SHT31;54011;50.772;7.730;2023-02-14T08:08:44;2.00;89.68
67093;SHT31;54011;50.772;7.730;2023-02-14T08:11:10;2.01;89.80
67093;SHT31;54011;50.772;7.730;2023-02-14T08:13:36;2.15;89.30
67093;SHT31;54011;50.772;7.730;2023-02-14T08:16:02;2.24;89.16
67093;SHT31;54011;50.772;7.730;2023-02-14T08:18:34;2.35;88.85
67093;SHT31;54011;50.772;7.730;2023-02-14T08:21:00;2.41;88.87
67093;SHT31;54011;50.772;7.730;2023-02-14T08:23:25;2.41;88.72
67093;SHT31;54011;50.772;7.730;2023-02-14T08:25:51;2.53;88.42
67093;SHT31;54011;50.772;7.730;2023-02-14T08:28:17;2.71;87.48
67093;SHT31;54011;50.772;7.730;2023-02-14T08:30:43;2.69;87.07
67093;SHT31;54011;50.772;7.730;2023-02-14T08:33:10;2.76;86.07
67093;SHT31;54011;50.772;7.730;2023-02-14T08:35:35;2.73;87.27
67093;SHT31;54011;50.772;7.730;2023-02-14T08:38:01;2.89;87.10
67093;SHT31;54011;50.772;7.730;2023-02-14T08:40:27;3.25;87.58
67093;SHT31;54011;50.772;7.730;2023-02-14T08:42:54;3.89;85.56
67093;SHT31;54011;50.772;7.730;2023-02-14T08:45:21;4.07;84.82
67093;SHT31;54011;50.772;7.730;2023-02-14T08:47:46;4.45;84.35
67093;SHT31;54011;50.772;7.730;2023-02-14T08:50:15;4.43;84.52
67093;SHT31;54011;50.772;7.730;2023-02-14T08:52:41;4.61;83.25
67093;SHT31;54011;50.772;7.730;2023-02-14T08:55:11;4.79;83.56
67093;SHT31;54011;50.772;7.730;2023-02-14T08:57:37;4.88;83.43
67093;SHT31;54011;50.772;7.730;2023-02-14T09:00:04;4.95;82.95
67093;SHT31;54011;50.772;7.730;2023-02-14T09:02:29;4.99;82.62
67093;SHT31;54011;50.772;7.730;2023-02-14T09:04:56;4.96;83.14
67093;SHT31;54011;50.772;7.730;2023-02-14T09:07:22;5.23;83.68
67093;SHT31;54011;50.772;7.730;2023-02-14T09:09:48;5.30;83.09
67093;SHT31;54011;50.772;7.730;2023-02-14T09:12:14;5.26;82.79
67093;SHT31;54011;50.772;7.730;2023-02-14T09:14:41;5.48;82.63
67093;SHT31;54011;50.772;7.730;2023-02-14T09:17:14;5.58;81.86
67093;SHT31;54011;50.772;7.730;2023-02-14T09:19:40;5.70;82.01
67093;SHT31;54011;50.772;7.730;2023-02-14T09:22:09;5.78;81.51
67093;SHT31;54011;50.772;7.730;2023-02-14T09:24:36;6.22;80.85
67093;SHT31;54011;50.772;7.730;2023-02-14T09:27:03;6.56;80.86
67093;SHT31;54011;50.772;7.730;2023-02-14T09:29:32;6.77;79.71
67093;SHT31;54011;50.772;7.730;2023-02-14T09:31:59;7.01;79.03
67093;SHT31;54011;50.772;7.730;2023-02-14T09:34:26;6.88;78.38
67093;SHT31;54011;50.772;7.730;2023-02-14T09:36:52;7.11;77.53
67093;SHT31;54011;50.772;7.730;2023-02-14T09:39:39;8.00;76.51
67093;SHT31;54011;50.772;7.730;2023-02-14T09:44:53;8.00;76.14
67093;SHT31;54011;50.772;7.730;2023-02-14T09:47:34;8.11;74.31
67093;SHT31;54011;50.772;7.730;2023-02-14T09:50:05;8.59;72.98
67093;SHT31;54011;50.772;7.730;2023-02-14T09:52:32;8.40;73.84
67093;SHT31;54011;50.772;7.730;2023-02-14T09:54:59;8.41;73.08
67093;SHT31;54011;50.772;7.730;2023-02-14T09:57:54;8.75;72.99
67093;SHT31;54011;50.772;7.730;2023-02-14T10:00:23;8.58;72.43
67093;SHT31;54011;50.772;7.730;2023-02-14T10:03:00;8.82;73.86
67093;SHT31;54011;50.772;7.730;2023-02-14T10:05:29;9.31;71.66
67093;SHT31;54011;50.772;7.730;2023-02-14T10:08:05;10.02;70.20
67093;SHT31;54011;50.772;7.730;2023-02-14T10:10:41;10.56;67.38
67093;SHT31;54011;50.772;7.730;2023-02-14T10:13:33;10.05;69.85
67093;SHT31;54011;50.772;7.730;2023-02-14T10:16:17;10.56;67.30
67093;SHT31;54011;50.772;7.730;2023-02-14T10:18:59;11.40;66.20
67093;SHT31;54011;50.772;7.730;2023-02-14T10:21:54;11.94;64.77
67093;SHT31;54011;50.772;7.730;2023-02-14T10:24:39;11.55;65.90
67093;SHT31;54011;50.772;7.730;2023-02-14T10:27:17;12.16;65.01
67093;SHT31;54011;50.772;7.730;2023-02-14T10:29:50;12.55;63.70
67093;SHT31;54011;50.772;7.730;2023-02-14T10:32:22;12.82;62.24
67093;SHT31;54011;50.772;7.730;2023-02-14T10:34:50;12.68;62.13
67093;SHT31;54011;50.772;7.730;2023-02-14T10:40:30;13.56;61.25
67093;SHT31;54011;50.772;7.730;2023-02-14T10:44:04;13.16;59.53
67093;SHT31;54011;50.772;7.730;2023-02-14T10:46:17;13.23;60.68
67093;SHT31;54011;50.772;7.730;2023-02-14T10:51:34;12.42;60.70
67093;SHT31;54011;50.772;7.730;2023-02-14T10:56:54;13.50;59.10
67093;SHT31;54011;50.772;7.730;2023-02-14T10:59:27;13.27;57.79
67093;SHT31;54011;50.772;7.730;2023-02-14T11:01:55;13.98;57.65
67093;SHT31;54011;50.772;7.730;2023-02-14T11:04:23;14.87;54.14
67093;SHT31;54011;50.772;7.730;2023-02-14T11:06:49;14.16;55.25
67093;SHT31;54011;50.772;7.730;2023-02-14T11:09:16;14.12;56.29
67093;SHT31;54011;50.772;7.730;2023-02-14T11:11:58;14.79;54.41
67093;SHT31;54011;50.772;7.730;2023-02-14T11:16:53;15.32;52.02
67093;SHT31;54011;50.772;7.730;2023-02-14T11:19:27;15.31;52.20
67093;SHT31;54011;50.772;7.730;2023-02-14T11:21:57;15.32;52.44
67093;SHT31;54011;50.772;7.730;2023-02-14T11:24:35;14.62;52.65
67093;SHT31;54011;50.772;7.730;2023-02-14T11:27:16;14.43;52.63
67093;SHT31;54011;50.772;7.730;2023-02-14T11:29:45;14.90;51.65
67093;SHT31;54011;50.772;7.730;2023-02-14T11:32:24;14.33;52.93
67093;SHT31;54011;50.772;7.730;2023-02-14T11:37:30;14.47;52.01
67093;SHT31;54011;50.772;7.730;2023-02-14T11:39:58;14.97;51.79
67093;SHT31;54011;50.772;7.730;2023-02-14T11:44:58;16.37;49.74
67093;SHT31;54011;50.772;7.730;2023-02-14T11:47:31;15.56;50.55
67093;SHT31;54011;50.772;7.730;2023-02-14T11:50:00;16.00;50.21
67093;SHT31;54011;50.772;7.730;2023-02-14T11:52:27;16.60;48.10
67093;SHT31;54011;50.772;7.730;2023-02-14T11:54:57;16.13;50.16
67093;SHT31;54011;50.772;7.730;2023-02-14T11:57:29;16.33;47.75
67093;SHT31;54011;50.772;7.730;2023-02-14T11:59:58;16.16;48.59
67093;SHT31;54011;50.772;7.730;2023-02-14T12:02:35;15.92;48.51
67093;SHT31;54011;50.772;7.730;2023-02-14T12:05:05;16.06;49.46
67093;SHT31;54011;50.772;7.730;2023-02-14T12:07:37;16.16;49.19
67093;SHT31;54011;50.772;7.730;2023-02-14T12:13:17;16.41;48.47
67093;SHT31;54011;50.772;7.730;2023-02-14T12:15:51;16.92;48.28
67093;SHT31;54011;50.772;7.730;2023-02-14T12:18:40;16.85;48.96
67093;SHT31;54011;50.772;7.730;2023-02-14T12:21:30;17.20;47.62
67093;SHT31;54011;50.772;7.730;2023-02-14T12:24:22;16.91;46.87
67093;SHT31;54011;50.772;7.730;2023-02-14T12:27:16;17.19;46.78
67093;SHT31;54011;50.772;7.730;2023-02-14T12:29:51;17.13;46.81
67093;SHT31;54011;50.772;7.730;2023-02-14T12:32:27;17.23;46.78
67093;SHT31;54011;50.772;7.730;2023-02-14T12:35:02;17.63;46.78
67093;SHT31;54011;50.772;7.730;2023-02-14T12:37:36;17.70;46.74
67093;SHT31;54011;50.772;7.730;2023-02-14T12:40:13;17.33;46.91
67093;SHT31;54011;50.772;7.730;2023-02-14T12:45:55;17.44;47.27
67093;SHT31;54011;50.772;7.730;2023-02-14T13:02:43;17.19;46.10
67093;SHT31;54011;50.772;7.730;2023-02-14T13:05:32;17.59;45.17
67093;SHT31;54011;50.772;7.730;2023-02-14T13:13:36;17.60;44.07
67093;SHT31;54011;50.772;7.730;2023-02-14T13:16:40;17.70;45.06
67093;SHT31;54011;50.772;7.730;2023-02-14T13:19:29;17.64;45.98
67093;SHT31;54011;50.772;7.730;2023-02-14T13:21:57;17.22;45.41
67093;SHT31;54011;50.772;7.730;2023-02-14T13:24:26;17.53;44.63
67093;SHT31;54011;50.772;7.730;2023-02-14T13:26:57;16.92;46.15
67093;SHT31;54011;50.772;7.730;2023-02-14T13:29:26;16.74;46.45
67093;SHT31;54011;50.772;7.730;2023-02-14T13:31:56;17.33;45.87
67093;SHT31;54011;50.772;7.730;2023-02-14T13:34:38;17.42;45.85
67093;SHT31;54011;50.772;7.730;2023-02-14T13:37:09;17.46;44.99
67093;SHT31;54011;50.772;7.730;2023-02-14T13:39:40;17.66;45.29
67093;SHT31;54011;50.772;7.730;2023-02-14T13:42:09;16.75;46.58
67093;SHT31;54011;50.772;7.730;2023-02-14T13:47:04;18.90;43.87
67093;SHT31;54011;50.772;7.730;2023-02-14T13:49:33;19.28;43.53
67093;SHT31;54011;50.772;7.730;2023-02-14T13:52:04;18.76;43.08
67093;SHT31;54011;50.772;7.730;2023-02-14T13:57:03;18.63;43.66
67093;SHT31;54011;50.772;7.730;2023-02-14T14:10:54;17.53;45.21
67093;SHT31;54011;50.772;7.730;2023-02-14T14:19:03;18.38;43.56
67093;SHT31;54011;50.772;7.730;2023-02-14T14:21:34;18.41;42.77
67093;SHT31;54011;50.772;7.730;2023-02-14T14:24:10;19.07;42.18
67093;SHT31;54011;50.772;7.730;2023-02-14T14:26:40;19.39;41.45
67093;SHT31;54011;50.772;7.730;2023-02-14T14:31:40;19.14;41.51
67093;SHT31;54011;50.772;7.730;2023-02-14T14:34:15;17.98;44.52
67093;SHT31;54011;50.772;7.730;2023-02-14T14:36:41;18.19;43.59
67093;SHT31;54011;50.772;7.730;2023-02-14T14:39:08;18.41;42.55
67093;SHT31;54011;50.772;7.730;2023-02-14T14:41:34;17.60;44.01
67093;SHT31;54011;50.772;7.730;2023-02-14T14:44:00;18.32;43.34
67093;SHT31;54011;50.772;7.730;2023-02-14T14:46:25;17.09;45.72
67093;SHT31;54011;50.772;7.730;2023-02-14T14:48:53;17.75;45.43
67093;SHT31;54011;50.772;7.730;2023-02-14T14:51:31;18.76;43.92
67093;SHT31;54011;50.772;7.730;2023-02-14T14:54:18;18.86;44.38
67093;SHT31;54011;50.772;7.730;2023-02-14T14:56:57;18.80;43.51
67093;SHT31;54011;50.772;7.730;2023-02-14T15:01:51;18.86;43.63
67093;SHT31;54011;50.772;7.730;2023-02-14T15:06:57;18.69;43.45
67093;SHT31;54011;50.772;7.730;2023-02-14T15:09:37;18.70;42.94
67093;SHT31;54011;50.772;7.730;2023-02-14T15:12:16;18.66;42.23
67093;SHT31;54011;50.772;7.730;2023-02-14T15:15:03;18.16;43.58
67093;SHT31;54011;50.772;7.730;2023-02-14T15:17:31;18.02;44.60
67093;SHT31;54011;50.772;7.730;2023-02-14T15:20:02;17.69;44.02
67093;SHT31;54011;50.772;7.730;2023-02-14T15:25:19;17.20;44.05
67093;SHT31;54011;50.772;7.730;2023-02-14T15:27:45;16.33;46.50
67093;SHT31;54011;50.772;7.730;2023-02-14T15:32:44;14.91;48.28
67093;SHT31;54011;50.772;7.730;2023-02-14T15:35:11;16.23;46.79
67093;SHT31;54011;50.772;7.730;2023-02-14T15:37:38;16.02;46.54
67093;SHT31;54011;50.772;7.730;2023-02-14T15:40:04;15.31;48.49
67093;SHT31;54011;50.772;7.730;2023-02-14T15:42:38;15.21;48.23
67093;SHT31;54011;50.772;7.730;2023-02-14T15:47:58;16.17;45.24
67093;SHT31;54011;50.772;7.730;2023-02-14T15:50:27;15.70;45.74
67093;SHT31;54011;50.772;7.730;2023-02-14T15:53:15;15.87;46.25
67093;SHT31;54011;50.772;7.730;2023-02-14T15:55:48;15.82;46.63
67093;SHT31;54011;50.772;7.730;2023-02-14T15:58:20;15.44;47.81
67093;SHT31;54011;50.772;7.730;2023-02-14T16:00:46;14.46;48.93
67093;SHT31;54011;50.772;7.730;2023-02-14T16:03:19;14.60;49.06
67093;SHT31;54011;50.772;7.730;2023-02-14T16:05:47;14.53;48.86
67093;SHT31;54011;50.772;7.730;2023-02-14T16:11:02;12.10;54.42
67093;SHT31;54011;50.772;7.730;2023-02-14T16:13:30;12.45;54.24
67093;SHT31;54011;50.772;7.730;2023-02-14T16:16:03;11.89;55.99
67093;SHT31;54011;50.772;7.730;2023-02-14T16:18:41;11.54;57.20
67093;SHT31;54011;50.772;7.730;2023-02-14T16:21:20;11.39;57.67
67093;SHT31;54011;50.772;7.730;2023-02-14T16:26:39;11.29;58.27
67093;SHT31;54011;50.772;7.730;2023-02-14T16:29:10;10.88;60.21
67093;SHT31;54011;50.772;7.730;2023-02-14T16:31:40;10.81;60.38
67093;SHT31;54011;50.772;7.730;2023-02-14T16:34:10;10.50;60.24
67093;SHT31;54011;50.772;7.730;2023-02-14T16:36:36;10.39;60.88
67093;SHT31;54011;50.772;7.730;2023-02-14T16:39:03;10.19;61.60
67093;SHT31;54011;50.772;7.730;2023-02-14T16:41:33;9.84;63.00
67093;SHT31;54011;50.772;7.730;2023-02-14T16:43:59;9.59;63.46
67093;SHT31;54011;50.772;7.730;2023-02-14T16:46:28;9.74;63.42
67093;SHT31;54011;50.772;7.730;2023-02-14T16:48:54;9.77;63.71
67093;SHT31;54011;50.772;7.730;2023-02-14T16:51:21;9.54;64.34
67093;SHT31;54011;50.772;7.730;2023-02-14T16:53:48;9.41;65.01
67093;SHT31;54011;50.772;7.730;2023-02-14T16:56:22;9.16;65.66
67093;SHT31;54011;50.772;7.730;2023-02-14T16:58:49;8.64;67.12
67093;SHT31;54011;50.772;7.730;2023-02-14T17:01:16;8.58;67.66
67093;SHT31;54011;50.772;7.730;2023-02-14T17:03:42;8.48;67.89
67093;SHT31;54011;50.772;7.730;2023-02-14T17:06:10;8.49;67.26
67093;SHT31;54011;50.772;7.730;2023-02-14T17:08:38;8.17;68.43
67093;SHT31;54011;50.772;7.730;2023-02-14T17:11:04;8.17;69.20
67093;SHT31;54011;50.772;7.730;2023-02-14T17:13:32;8.07;68.90
67093;SHT31;54011;50.772;7.730;2023-02-14T17:15:58;8.01;69.83
67093;SHT31;54011;50.772;7.730;2023-02-14T17:18:26;8.08;69.58
67093;SHT31;54011;50.772;7.730;2023-02-14T17:20:54;7.96;69.97
67093;SHT31;54011;50.772;7.730;2023-02-14T17:23:19;7.73;70.69
67093;SHT31;54011;50.772;7.730;2023-02-14T17:25:45;7.59;70.70
67093;SHT31;54011;50.772;7.730;2023-02-14T17:28:11;7.01;72.22
67093;SHT31;54011;50.772;7.730;2023-02-14T17:30:37;7.17;72.35
67093;SHT31;54011;50.772;7.730;2023-02-14T17:33:04;7.17;72.75
67093;SHT31;54011;50.772;7.730;2023-02-14T17:35:29;7.11;72.81
67093;SHT31;54011;50.772;7.730;2023-02-14T17:37:55;7.05;72.44
67093;SHT31;54011;50.772;7.730;2023-02-14T17:40:20;7.01;72.82
67093;SHT31;54011;50.772;7.730;2023-02-14T17:42:45;6.93;73.10
67093;SHT31;54011;50.772;7.730;2023-02-14T17:45:11;7.03;73.42
67093;SHT31;54011;50.772;7.730;2023-02-14T17:47:37;6.50;74.61
67093;SHT31;54011;50.772;7.730;2023-02-14T17:50:04;6.53;74.78
67093;SHT31;54011;50.772;7.730;2023-02-14T17:52:30;6.56;74.42
67093;SHT31;54011;50.772;7.730;2023-02-14T17:54:56;6.52;74.26
67093;SHT31;54011;50.772;7.730;2023-02-14T17:57:22;6.32;75.14
67093;SHT31;54011;50.772;7.730;2023-02-14T17:59:47;6.19;75.78
67093;SHT31;54011;50.772;7.730;2023-02-14T18:02:16;6.47;75.36
67093;SHT31;54011;50.772;7.730;2023-02-14T18:04:42;6.60;74.49
67093;SHT31;54011;50.772;7.730;2023-02-14T18:07:08;6.37;75.42
67093;SHT31;54011;50.772;7.730;2023-02-14T18:09:33;6.35;75.46
67093;SHT31;54011;50.772;7.730;2023-02-14T18:11:59;6.32;75.48
67093;SHT31;54011;50.772;7.730;2023-02-14T18:14:25;6.32;75.51